Flight Track Log - Related Links

Times and Time Zones

All times are in EDT time to prevent confusion due to time zone crossing. See the N30VP flight status page for this flight to view local times or setup timezone preferences in your user account.

Time Position Orientation Groundspeed Altitude Reporting Facility
EDT Latitude Longitude Course Direction KTS MPH feet Rate Location/Type
Mon 11:26:38 AM 26.6856 -80.0117 344° North 199 229 5,100  Level Miami Center
Mon 11:27:38 AM 26.7353 -80.0272 344° North 156 180 8,400 3,400 Climbing Miami Center
Mon 11:28:38 AM 26.7586 -80.1092 288° West 159 183 11,900 2,050 Climbing Miami Center
Mon 11:29:38 AM 26.7753 -80.1981 282° West 263 303 12,500 1,050 Climbing Miami Center
Mon 11:30:38 AM 26.8028 -80.2778 291° West 291 335 14,000 1,900 Climbing Miami Center
Mon 11:31:38 AM 26.8828 -80.3339 328° Northwest 296 341 16,300 2,650 Climbing Miami Center
Mon 11:32:38 AM 26.9733 -80.3947 329° Northwest 321 369 19,300 2,850 Climbing Miami Center
Mon 11:33:38 AM 27.0597 -80.4439 333° Northwest 333 383 22,000 2,700 Climbing Miami Center
Mon 11:34:38 AM 27.1442 -80.4911 334° Northwest 338 389 24,700 2,400 Climbing Miami Center
Mon 11:35:38 AM 27.2264 -80.5425 331° Northwest 338 389 26,800 1,950 Climbing Miami Center
Mon 11:36:38 AM 27.3128 -80.5919 333° Northwest 338 389 28,600 1,800 Climbing Miami Center
Mon 11:37:38 AM 27.3992 -80.6464 331° Northwest 343 395 30,400 1,800 Climbing Miami Center
Mon 11:38:38 AM 27.4894 -80.6983 333° Northwest 349 402 32,200 1,700 Climbing Miami Center
Mon 11:39:38 AM 27.5758 -80.7506 332° Northwest 349 402 33,800 1,500 Climbing Miami Center
Mon 11:40:38 AM 27.6642 -80.8028 332° Northwest 349 402 35,200 1,200 Climbing Miami Center
Mon 11:41:38 AM 27.7567 -80.8575 332° Northwest 354 407 36,200 900 Climbing Miami Center
Mon 11:42:38 AM 27.8469 -80.9100 333° Northwest 359 413 37,000 400 Climbing Miami Center
Mon 11:43:38 AM 27.9586 -80.9447 345° North 381 438 37,000  Level Miami Center
Mon 11:44:38 AM 28.0747 -80.9700 349° North 405 466 37,000  Level Miami Center
Mon 11:45:38 AM 28.1908 -80.9978 348° North 415 478 37,000  Level Miami Center
Mon 11:47:18 AM 28.3767 -81.0383 349° North 422 486 37,000  Level Jacksonville Center
Mon 11:48:18 AM 28.5086 -81.0758 346° North 432 497 37,000  Level Jacksonville Center
Mon 11:49:18 AM 28.6258 -81.1022 349° North 432 497 37,000  Level Jacksonville Center
Mon 11:50:19 AM 28.7450 -81.1308 348° North 432 497 37,000  Level Jacksonville Center
Mon 11:51:19 AM 28.8644 -81.1594 348° North 432 497 37,000  Level Jacksonville Center
Mon 11:52:18 AM 28.9817 -81.1836 350° North 432 497 37,000  Level Jacksonville Center
Mon 11:53:19 AM 29.0989 -81.2147 347° North 432 497 37,000  Level Jacksonville Center
Mon 11:54:18 AM 29.2183 -81.2436 348° North 432 497 37,000  Level Jacksonville Center
Mon 11:55:18 AM 29.3356 -81.2728 348° North 432 497 37,000  Level Jacksonville Center
Mon 11:56:19 AM 29.4567 -81.2828 356° North 432 497 37,000  Level Jacksonville Center
Mon 11:57:18 AM 29.5739 -81.2975 354° North 427 491 37,000  Level Jacksonville Center
Mon 11:58:18 AM 29.6931 -81.3050 357° North 427 491 37,000  Level Jacksonville Center
Mon 11:59:19 AM 29.8142 -81.3128 357° North 427 491 37,000  Level Jacksonville Center
Mon 12:00:19 PM 29.9333 -81.3250 355° North 427 491 37,000  Level Jacksonville Center
Mon 12:01:18 PM 30.0419 -81.3328 356° North 427 491 37,000  Level Jacksonville Center
Mon 12:02:19 PM 30.1611 -81.3431 356° North 427 491 37,000  Level Jacksonville Center
Mon 12:03:19 PM 30.2822 -81.3506 357° North 427 491 37,000  Level Jacksonville Center
Mon 12:04:18 PM 30.4014 -81.3608 356° North 427 491 37,000  Level Jacksonville Center
Mon 12:05:19 PM 30.5206 -81.3708 356° North 427 491 37,000  Level Jacksonville Center
Mon 12:06:18 PM 30.6397 -81.3836 355° North 427 491 37,000  Level Jacksonville Center
Mon 12:07:18 PM 30.7589 -81.3936 356° North 427 491 37,000  Level Jacksonville Center
Mon 12:08:18 PM 30.8758 -81.4039 356° North 427 491 37,000  Level Jacksonville Center
Mon 12:09:18 PM 30.9908 -81.4119 357° North 427 491 37,000  Level Jacksonville Center
Mon 12:10:18 PM 31.1100 -81.4244 355° North 427 491 37,000  Level Jacksonville Center
Mon 12:11:19 PM 31.2269 -81.4350 356° North 427 491 37,000  Level Jacksonville Center
Mon 12:12:19 PM 31.3561 -81.4061 11° North 422 486 37,000  Level Jacksonville Center
Mon 12:13:18 PM 31.4747 -81.3775 12° North 424 488 37,000  Level Jacksonville Center
Mon 12:14:19 PM 31.5886 -81.3000 30° Northeast 441 507 37,000  Level Jacksonville Center
Mon 12:15:18 PM 31.6919 -81.2078 37° Northeast 464 534 37,000  Level Jacksonville Center
Mon 12:16:18 PM 31.7847 -81.1206 39° Northeast 472 543 37,000  Level Jacksonville Center
Mon 12:17:19 PM 31.9019 -81.0131 38° Northeast 477 549 37,000  Level Jacksonville Center
Mon 12:18:19 PM 32.0028 -80.9156 39° Northeast 477 549 37,000  Level Jacksonville Center
Mon 12:19:18 PM 32.1100 -80.8225 36° Northeast 477 549 37,000  Level Jacksonville Center
Mon 12:20:18 PM 32.2003 -80.7344 40° Northeast 477 549 37,000  Level Jacksonville Center
Mon 12:21:19 PM 32.3031 -80.6386 38° Northeast 477 549 37,000  Level Jacksonville Center
Mon 12:22:18 PM 32.4056 -80.5403 39° Northeast 471 542 37,000  Level Jacksonville Center
Mon 12:23:19 PM 32.5083 -80.4439 38° Northeast 465 535 37,000  Level Jacksonville Center
Mon 12:24:19 PM 32.6106 -80.3475 38° Northeast 465 535 37,000  Level Jacksonville Center
Mon 12:25:19 PM 32.7150 -80.2458 39° Northeast 471 542 37,000 -50 Level Jacksonville Center
Mon 12:26:19 PM 32.8153 -80.1464 40° Northeast 471 542 36,900 -605 Descending Jacksonville Center
Mon 12:27:18 PM 32.9175 -80.0469 39° Northeast 471 542 35,800 -1,311 Descending Jacksonville Center
Mon 12:28:18 PM 33.0194 -79.9494 39° Northeast 466 536 34,300 -1,785 Descending Jacksonville Center
Mon 12:29:19 PM 33.1217 -79.8544 38° Northeast 466 536 32,200 -2,300 Descending Jacksonville Center
Mon 12:30:18 PM 33.2317 -79.7489 39° Northeast 466 536 29,700 -2,319 Descending Jacksonville Center
Mon 12:31:18 PM 33.3294 -79.6533 39° Northeast 461 531 27,600 -2,000 Descending Jacksonville Center
Mon 12:32:18 PM 33.4253 -79.5603 39° Northeast 461 531 25,700 -1,785 Descending Jacksonville Center
Mon 12:33:19 PM 33.5186 -79.4672 40° Northeast 450 518 24,000 -1,339 Descending Jacksonville Center
Mon 12:34:19 PM 33.6100 -79.3764 40° Northeast 438 504 23,000 -500 Descending Jacksonville Center
Mon 12:35:19 PM 33.6994 -79.2878 39° Northeast 425 489 23,000 -300 Level Jacksonville Center
Mon 12:36:19 PM 33.7867 -79.2042 39° Northeast 411 473 22,400 -908 Descending Jacksonville Center
Mon 12:37:18 PM 33.8778 -79.1131 40° Northeast 416 479 21,200 -1,109 Descending Jacksonville Center
Mon 12:38:18 PM 33.9731 -79.0211 39° Northeast 422 486 20,200 -1,400 Descending Jacksonville Center
Mon 12:40:18 PM 34.1336 -78.8583 40° Northeast 401 461 17,000 -1,591 Descending Washington Center
Mon 12:41:19 PM 34.2214 -78.7742 38° Northeast 396 456 15,400 -1,916 Descending Washington Center
Mon 12:42:17 PM 34.3008 -78.6892 41° Northeast 396 456 13,200 -2,168 Descending Washington Center
Mon 12:43:18 PM 34.3778 -78.6114 40° Northeast 376 433 11,100 -1,190 Descending Washington Center
Mon 12:44:18 PM 34.4528 -78.5361 40° Northeast 364 419 10,800 -814 Descending Washington Center
Mon 12:45:16 PM 34.5189 -78.4706 39° Northeast 330 380 9,500 -1,513 Descending Washington Center
Mon 12:46:17 PM 34.5853 -78.3997 41° Northeast 292 336 7,800 -1,574 Descending Washington Center
Mon 12:47:18 PM 34.6344 -78.3533 38° Northeast 270 311 6,300 -1,486 Descending Washington Center
Mon 12:48:06 PM 34.6817 -78.2994 43° Northeast 258 297 5,100 -1,444 Descending Washington Center
Mon 12:48:12 PM 34.6858 -78.2997 357° North 257 296 5,000 -500 Descending Washington Center
Mon 12:48:18 PM 34.6878 -78.2972 47° Northeast 256 295 5,000 -1,300 Level Washington Center
Mon 12:49:12 PM 34.7414 -78.2408 41° Northeast 253 291 3,700 -1,300 Descending Washington Center
Mon 12:49:18 PM 34.7433 -78.2383 47° Northeast 256 295 3,700 -787 Level Washington Center
Mon 12:50:13 PM 34.7906 -78.1892 41° Northeast 241 277 2,900 -787 Descending Washington Center
Mon 12:50:19 PM 34.7947 -78.1844 43° Northeast 245 282 2,900 -689 Level Washington Center
Mon 12:51:14 PM 34.8439 -78.1353 39° Northeast 238 274 2,200 -724 Descending Washington Center
Mon 12:51:17 PM 34.8503 -78.1253 52° Northeast 239 275 2,200  Level Washington Center

Login

Don't have an account? Register now (free) for customized features, flight alerts, and more!